createdAt,value
2017-04-17T00:00:48.135Z,0
2017-04-17T00:01:48.711Z,0
2017-04-17T00:02:48.096Z,0
2017-04-17T00:03:48.381Z,0
2017-04-17T00:04:48.338Z,0
2017-04-17T00:05:48.631Z,0
2017-04-17T00:06:48.611Z,0
2017-04-17T00:07:48.594Z,0
2017-04-17T00:08:48.593Z,0
2017-04-17T00:09:48.252Z,0
2017-04-17T00:10:48.221Z,0
2017-04-17T00:11:47.914Z,0
2017-04-17T00:12:48.495Z,0
2017-04-17T00:13:48.193Z,0
2017-04-17T00:14:48.135Z,0
2017-04-17T00:15:48.442Z,0
2017-04-17T00:16:48.107Z,0
2017-04-17T00:17:48.403Z,0
2017-04-17T00:18:48.374Z,0
2017-04-17T00:19:48.328Z,0
2017-04-17T00:20:48.331Z,0
2017-04-17T00:21:48.303Z,0
2017-04-17T00:22:47.722Z,0
2017-04-17T00:23:48.254Z,0
2017-04-17T00:24:47.908Z,0
2017-04-17T00:25:48.207Z,0
2017-04-17T00:26:47.891Z,0
2017-04-17T00:27:47.883Z,0
2017-04-17T00:28:47.853Z,0
2017-04-17T00:29:47.912Z,0
2017-04-17T00:30:48.105Z,0
2017-04-17T00:31:48.082Z,0
2017-04-17T00:32:47.498Z,0
2017-04-17T00:33:47.842Z,0
2017-04-17T00:34:47.803Z,0
2017-04-17T00:35:48.004Z,0
2017-04-17T00:36:47.962Z,0
2017-04-17T00:37:47.674Z,0
2017-04-17T00:38:47.320Z,0
2017-04-17T00:39:47.924Z,0
2017-04-17T00:40:47.574Z,0
2017-04-17T00:41:47.565Z,0
2017-04-17T00:42:47.542Z,0
2017-04-17T00:43:47.823Z,0
2017-04-17T00:44:47.489Z,0
2017-04-17T00:45:47.783Z,0
2017-04-17T00:46:47.760Z,0
2017-04-17T00:47:47.187Z,0
2017-04-17T00:48:47.095Z,0
2017-04-17T00:49:47.682Z,0
2017-04-17T00:50:47.370Z,0
2017-04-17T00:51:47.065Z,0
2017-04-17T00:52:47.009Z,0
2017-04-17T00:53:47.043Z,0
2017-04-17T00:54:47.293Z,0
2017-04-17T00:55:47.299Z,0
2017-04-17T00:56:47.534Z,0
2017-04-17T00:57:47.203Z,0
2017-04-17T00:58:46.875Z,0
2017-04-17T00:59:47.195Z,0
2017-04-17T01:00:47.155Z,0
2017-04-17T01:01:47.423Z,0
2017-04-17T01:02:47.114Z,0
2017-04-17T01:03:46.478Z,0
2017-04-17T01:04:47.073Z,0
2017-04-17T01:05:47.073Z,0
2017-04-17T01:06:47.015Z,0
2017-04-17T01:07:46.994Z,0
2017-04-17T01:08:47.281Z,0
2017-04-17T01:09:47.308Z,0
2017-04-17T01:10:47.358Z,0
2017-04-17T01:11:46.605Z,0
2017-04-17T01:12:46.276Z,0
2017-04-17T01:13:47.182Z,0
2017-04-17T01:14:46.541Z,0
2017-04-17T01:15:46.814Z,0
2017-04-17T01:16:47.172Z,0
2017-04-17T01:17:47.088Z,0
2017-04-17T01:18:46.771Z,0
2017-04-17T01:19:46.431Z,0
2017-04-17T01:20:46.699Z,0
2017-04-17T01:21:46.682Z,0
2017-04-17T01:22:46.966Z,0
2017-04-17T01:23:46.975Z,0
2017-04-17T01:24:46.317Z,0
2017-04-17T01:25:46.898Z,0
2017-04-17T01:26:46.588Z,0
2017-04-17T01:27:45.944Z,0
2017-04-17T01:28:46.548Z,0
2017-04-17T01:29:46.538Z,0
2017-04-17T01:30:46.196Z,0
2017-04-17T01:31:46.532Z,0
2017-04-17T01:32:46.894Z,0
2017-04-17T01:33:46.476Z,0
2017-04-17T01:34:46.401Z,0
2017-04-17T01:35:45.782Z,0
2017-04-17T01:36:46.678Z,0
2017-04-17T01:37:46.043Z,0
2017-04-17T01:38:46.645Z,0
2017-04-17T01:39:46.606Z,0
2017-04-17T01:40:46.594Z,0
2017-04-17T01:41:46.008Z,0
2017-04-17T01:42:45.928Z,0
2017-04-17T01:43:46.282Z,0
2017-04-17T01:44:45.874Z,0
2017-04-17T01:45:45.893Z,0
2017-04-17T01:46:46.191Z,0
2017-04-17T01:47:46.223Z,0
2017-04-17T01:48:46.124Z,0
2017-04-17T01:49:46.099Z,0
2017-04-17T01:50:45.762Z,0
2017-04-17T01:51:46.093Z,0
2017-04-17T01:52:46.422Z,0
2017-04-17T01:53:46.042Z,0
2017-04-17T01:54:45.982Z,0
2017-04-17T01:55:46.206Z,0
2017-04-17T01:56:46.295Z,0
2017-04-17T01:57:45.977Z,0
2017-04-17T01:58:46.235Z,0
2017-04-17T01:59:45.883Z,0
2017-04-17T02:00:45.862Z,0
2017-04-17T02:01:45.912Z,0
2017-04-17T02:02:45.820Z,0
2017-04-17T02:03:45.782Z,0
2017-04-17T02:04:46.211Z,0
2017-04-17T02:05:46.044Z,0
2017-04-17T02:06:46.014Z,0
2017-04-17T02:07:45.768Z,0
2017-04-17T02:08:45.792Z,0
2017-04-17T02:09:45.972Z,0
2017-04-17T02:10:45.992Z,0
2017-04-17T02:11:45.992Z,0
2017-04-17T02:12:45.983Z,0
2017-04-17T02:13:45.566Z,0
2017-04-17T02:14:45.944Z,0
2017-04-17T02:15:45.887Z,0
2017-04-17T02:16:45.192Z,0
2017-04-17T02:17:45.794Z,0
2017-04-17T02:18:45.803Z,0
2017-04-17T02:19:45.743Z,0
2017-04-17T02:20:45.162Z,0
2017-04-17T02:21:45.398Z,0
2017-04-17T02:22:45.423Z,0
2017-04-17T02:23:45.462Z,0
2017-04-17T02:24:45.423Z,0
2017-04-17T02:25:45.014Z,0
2017-04-17T02:26:45.353Z,0
2017-04-17T02:27:45.253Z,0
2017-04-17T02:28:44.948Z,0
2017-04-17T02:29:45.659Z,0
2017-04-17T02:30:45.514Z,0
2017-04-17T02:31:45.612Z,0
2017-04-17T02:32:45.145Z,0
2017-04-17T02:33:45.423Z,0
2017-04-17T02:34:45.111Z,0
2017-04-17T02:35:44.784Z,0
2017-04-17T02:36:45.373Z,0
2017-04-17T02:37:44.433Z,0
2017-04-17T02:38:45.030Z,0
2017-04-17T02:39:44.703Z,0
2017-04-17T02:40:44.972Z,0
2017-04-17T02:41:44.647Z,0
2017-04-17T02:42:45.243Z,0
2017-04-17T02:43:44.920Z,0
2017-04-17T02:44:45.196Z,0
2017-04-17T02:45:44.972Z,0
2017-04-17T02:46:44.559Z,0
2017-04-17T02:47:44.835Z,0
2017-04-17T02:48:44.651Z,0
2017-04-17T02:49:44.773Z,0
2017-04-17T02:50:44.465Z,0
2017-04-17T02:51:44.733Z,0
2017-04-17T02:52:44.723Z,0
2017-04-17T02:53:44.376Z,0
2017-04-17T02:54:44.982Z,0
2017-04-17T02:55:44.937Z,0
2017-04-17T02:56:44.614Z,0
2017-04-17T02:57:44.602Z,0
2017-04-17T02:58:44.582Z,0
2017-04-17T02:59:44.553Z,0
2017-04-17T03:00:44.228Z,0
2017-04-17T03:01:44.503Z,0
2017-04-17T03:02:44.503Z,0
2017-04-17T03:03:44.783Z,0
2017-04-17T03:04:44.435Z,0
2017-04-17T03:05:43.871Z,0
2017-04-17T03:06:44.554Z,0
2017-04-17T03:07:44.683Z,0
2017-04-17T03:08:44.363Z,0
2017-04-17T03:09:44.337Z,0
2017-04-17T03:10:44.315Z,0
2017-04-17T03:11:44.283Z,0
2017-04-17T03:12:44.264Z,0
2017-04-17T03:13:44.262Z,0
2017-04-17T03:14:43.600Z,0
2017-04-17T03:15:43.973Z,0
2017-04-17T03:16:44.172Z,0
2017-04-17T03:17:44.466Z,0
2017-04-17T03:18:44.135Z,0
2017-04-17T03:19:44.429Z,0
2017-04-17T03:20:44.398Z,0
2017-04-17T03:21:44.081Z,0
2017-04-17T03:22:44.363Z,0
2017-04-17T03:23:43.730Z,0
2017-04-17T03:24:44.005Z,0
2017-04-17T03:25:43.393Z,0
2017-04-17T03:26:44.034Z,0
2017-04-17T03:27:43.939Z,0
2017-04-17T03:28:43.614Z,0
2017-04-17T03:29:43.594Z,0
2017-04-17T03:30:43.859Z,0
2017-04-17T03:31:44.362Z,0
2017-04-17T03:32:43.822Z,0
2017-04-17T03:33:43.798Z,0
2017-04-17T03:34:43.491Z,0
2017-04-17T03:35:44.072Z,0
2017-04-17T03:36:43.743Z,0
2017-04-17T03:37:44.024Z,0
2017-04-17T03:38:43.691Z,0
2017-04-17T03:39:43.470Z,0
2017-04-17T03:40:43.642Z,0
2017-04-17T03:41:43.435Z,0
2017-04-17T03:42:43.792Z,0
2017-04-17T03:43:43.576Z,0
2017-04-17T03:44:43.663Z,0
2017-04-17T03:45:43.840Z,0
2017-04-17T03:46:43.523Z,0
2017-04-17T03:47:43.494Z,0
2017-04-17T03:48:43.502Z,0
2017-04-17T03:49:43.464Z,0
2017-04-17T03:50:43.452Z,0
2017-04-17T03:51:43.605Z,0
2017-04-17T03:52:43.419Z,0
2017-04-17T03:53:43.676Z,0
2017-04-17T03:54:43.674Z,0
2017-04-17T03:55:43.615Z,0
2017-04-17T03:56:43.605Z,0
2017-04-17T03:57:42.984Z,0
2017-04-17T03:58:43.574Z,0
2017-04-17T03:59:43.538Z,0
2017-04-17T04:00:43.505Z,0
2017-04-17T04:01:43.563Z,0
2017-04-17T04:02:43.544Z,0
2017-04-17T04:03:43.155Z,4
2017-04-17T04:04:43.458Z,0
2017-04-17T04:05:43.393Z,0
2017-04-17T04:06:43.082Z,4
2017-04-17T04:07:43.424Z,4
2017-04-17T04:08:43.066Z,4
2017-04-17T04:09:43.361Z,4
2017-04-17T04:10:42.705Z,4
2017-04-17T04:11:42.984Z,4
2017-04-17T04:12:43.273Z,8
2017-04-17T04:13:42.923Z,8
2017-04-17T04:14:42.902Z,12
2017-04-17T04:15:42.575Z,12
2017-04-17T04:16:42.862Z,16
2017-04-17T04:17:42.539Z,16
2017-04-17T04:18:42.813Z,20
2017-04-17T04:19:42.785Z,20
2017-04-17T04:20:42.460Z,20
2017-04-17T04:21:43.078Z,20
2017-04-17T04:22:42.754Z,24
2017-04-17T04:23:42.702Z,24
2017-04-17T04:24:42.982Z,28
2017-04-17T04:25:42.662Z,32
2017-04-17T04:26:42.629Z,32
2017-04-17T04:27:42.291Z,36
2017-04-17T04:28:42.953Z,40
2017-04-17T04:29:42.926Z,44
2017-04-17T04:30:41.952Z,48
2017-04-17T04:31:42.529Z,52
2017-04-17T04:32:42.203Z,56
2017-04-17T04:33:42.874Z,60
2017-04-17T04:34:42.504Z,64
2017-04-17T04:35:42.741Z,68
2017-04-17T04:36:42.433Z,72
2017-04-17T04:37:42.391Z,68
2017-04-17T04:38:42.433Z,76
2017-04-17T04:39:42.052Z,80
2017-04-17T04:40:42.400Z,84
2017-04-17T04:41:42.314Z,84
2017-04-17T04:42:42.665Z,88
2017-04-17T04:43:42.273Z,88
2017-04-17T04:44:42.309Z,92
2017-04-17T04:45:41.933Z,96
2017-04-17T04:46:41.620Z,100
2017-04-17T04:47:42.592Z,108
2017-04-17T04:48:42.178Z,116
2017-04-17T04:49:42.141Z,128
2017-04-17T04:50:41.823Z,140
2017-04-17T04:51:42.514Z,148
2017-04-17T04:52:42.250Z,156
2017-04-17T04:53:42.113Z,160
2017-04-17T04:54:41.790Z,164
2017-04-17T04:55:42.454Z,172
2017-04-17T04:56:42.340Z,188
2017-04-17T04:57:42.276Z,196
2017-04-17T04:58:41.624Z,184
2017-04-17T04:59:41.912Z,176
2017-04-17T05:00:41.928Z,188
2017-04-17T05:01:41.870Z,212
2017-04-17T05:02:41.541Z,240
2017-04-17T05:03:41.518Z,280
2017-04-17T05:04:41.838Z,328
2017-04-17T05:05:42.112Z,360
2017-04-17T05:06:42.182Z,388
2017-04-17T05:07:41.472Z,420
2017-04-17T05:08:41.759Z,444
2017-04-17T05:09:41.691Z,468
2017-04-17T05:10:41.672Z,488
2017-04-17T05:11:41.725Z,492
2017-04-17T05:12:41.318Z,496
2017-04-17T05:13:41.737Z,488
2017-04-17T05:14:41.958Z,484
2017-04-17T05:15:41.257Z,476
2017-04-17T05:16:41.582Z,472
2017-04-17T05:17:40.991Z,464
2017-04-17T05:18:41.205Z,448
2017-04-17T05:19:40.873Z,408
2017-04-17T05:20:41.461Z,388
2017-04-17T05:21:41.143Z,372
2017-04-17T05:22:41.500Z,356
2017-04-17T05:23:41.723Z,360
2017-04-17T05:24:41.354Z,368
2017-04-17T05:25:41.821Z,376
2017-04-17T05:26:41.341Z,392
2017-04-17T05:27:41.355Z,392
2017-04-17T05:28:41.725Z,360
2017-04-17T05:29:41.252Z,340
2017-04-17T05:30:41.622Z,324
2017-04-17T05:31:41.528Z,316
2017-04-17T05:32:41.282Z,328
2017-04-17T05:33:41.178Z,348
2017-04-17T05:34:40.542Z,352
2017-04-17T05:35:41.122Z,356
2017-04-17T05:36:40.814Z,404
2017-04-17T05:37:41.075Z,472
2017-04-17T05:38:41.079Z,536
2017-04-17T05:39:41.342Z,576
2017-04-17T05:40:41.441Z,552
2017-04-17T05:41:40.994Z,540
2017-04-17T05:42:40.985Z,540
2017-04-17T05:43:41.253Z,596
2017-04-17T05:44:41.526Z,676
2017-04-17T05:45:40.929Z,648
2017-04-17T05:46:41.000Z,600
2017-04-17T05:47:40.873Z,596
2017-04-17T05:48:41.155Z,572
2017-04-17T05:49:40.824Z,556
2017-04-17T05:50:41.122Z,540
2017-04-17T05:51:41.092Z,560
2017-04-17T05:52:40.763Z,644
2017-04-17T05:53:40.433Z,844
2017-04-17T05:54:40.715Z,900
2017-04-17T05:55:40.994Z,912
2017-04-17T05:56:40.362Z,920
2017-04-17T05:57:40.672Z,904
2017-04-17T05:58:40.998Z,1068
2017-04-17T05:59:40.920Z,1292
2017-04-17T06:00:40.908Z,1504
2017-04-17T06:01:40.566Z,1896
2017-04-17T06:02:40.523Z,2584
2017-04-17T06:03:40.525Z,3268
2017-04-17T06:04:40.502Z,3948
2017-04-17T06:05:40.470Z,4332
2017-04-17T06:06:40.771Z,4356
2017-04-17T06:07:40.727Z,4680
2017-04-17T06:08:40.767Z,5380
2017-04-17T06:09:40.697Z,6128
2017-04-17T06:10:40.664Z,6096
2017-04-17T06:11:40.356Z,5508
2017-04-17T06:12:40.343Z,4580
2017-04-17T06:13:40.608Z,3932
2017-04-17T06:14:39.732Z,3480
2017-04-17T06:15:40.565Z,3164
2017-04-17T06:16:40.571Z,2860
2017-04-17T06:17:40.534Z,2524
2017-04-17T06:18:40.350Z,2276
2017-04-17T06:19:40.171Z,2108
2017-04-17T06:20:39.834Z,2004
2017-04-17T06:21:40.462Z,1980
2017-04-17T06:22:40.102Z,1988
2017-04-17T06:23:40.105Z,2016
2017-04-17T06:24:40.077Z,2084
2017-04-17T06:25:40.048Z,2156
2017-04-17T06:26:40.318Z,2244
2017-04-17T06:27:40.002Z,2316
2017-04-17T06:28:40.308Z,2212
2017-04-17T06:29:40.076Z,2160
2017-04-17T06:30:39.942Z,2172
2017-04-17T06:31:40.032Z,2316
2017-04-17T06:32:39.908Z,2660
2017-04-17T06:33:39.902Z,2956
2017-04-17T06:34:40.172Z,3080
2017-04-17T06:35:39.649Z,3040
2017-04-17T06:36:39.807Z,2784
2017-04-17T06:37:40.108Z,2488
2017-04-17T06:38:39.782Z,2396
2017-04-17T06:39:40.054Z,2408
2017-04-17T06:40:39.419Z,2272
2017-04-17T06:41:39.723Z,2200
2017-04-17T06:42:39.691Z,2120
2017-04-17T06:43:39.813Z,2096
2017-04-17T06:44:39.943Z,2212
2017-04-17T06:45:39.929Z,2388
2017-04-17T06:46:39.907Z,2712
2017-04-17T06:47:39.591Z,3284
2017-04-17T06:48:39.852Z,3788
2017-04-17T06:49:39.852Z,4348
2017-04-17T06:50:39.520Z,4344
2017-04-17T06:51:39.801Z,9228
2017-04-17T06:52:39.455Z,7388
2017-04-17T06:53:39.782Z,5344
2017-04-17T06:54:39.751Z,7924
2017-04-17T06:55:39.732Z,6376
2017-04-17T06:56:39.380Z,6436
2017-04-17T06:57:38.753Z,6284
2017-04-17T06:58:39.341Z,6060
2017-04-17T06:59:39.362Z,6088
2017-04-17T07:00:39.618Z,5104
2017-04-17T07:01:39.327Z,5764
2017-04-17T07:02:39.585Z,9276
2017-04-17T07:03:38.983Z,38144
2017-04-17T07:04:39.232Z,23744
2017-04-17T07:05:39.251Z,6832
2017-04-17T07:06:39.493Z,6072
2017-04-17T07:07:38.853Z,12088
2017-04-17T07:08:39.144Z,33248
2017-04-17T07:09:38.812Z,7240
2017-04-17T07:10:38.786Z,6456
2017-04-17T07:11:39.402Z,4508
2017-04-17T07:12:39.077Z,3072
2017-04-17T07:13:39.051Z,2620
2017-04-17T07:14:39.366Z,2376
2017-04-17T07:15:38.731Z,2424
2017-04-17T07:16:38.978Z,2424
2017-04-17T07:17:39.282Z,2308
2017-04-17T07:18:39.274Z,2228
2017-04-17T07:19:39.235Z,2800
2017-04-17T07:20:39.258Z,3432
2017-04-17T07:21:38.860Z,5496
2017-04-17T07:22:38.853Z,3956
2017-04-17T07:23:38.863Z,2628
2017-04-17T07:24:38.510Z,1984
2017-04-17T07:25:38.798Z,1784
2017-04-17T07:26:38.763Z,2240
2017-04-17T07:27:39.150Z,2500
2017-04-17T07:28:39.052Z,2016
2017-04-17T07:29:38.712Z,1760
2017-04-17T07:30:38.991Z,1596
2017-04-17T07:31:38.686Z,1648
2017-04-17T07:32:38.664Z,2160
2017-04-17T07:33:38.329Z,2424
2017-04-17T07:34:38.616Z,2300
2017-04-17T07:35:38.292Z,3424
2017-04-17T07:36:38.617Z,2836
2017-04-17T07:37:38.580Z,4524
2017-04-17T07:38:38.543Z,3624
2017-04-17T07:39:38.503Z,3052
2017-04-17T07:40:38.804Z,3536
2017-04-17T07:41:38.773Z,15532
2017-04-17T07:42:38.456Z,29536
2017-04-17T07:43:38.753Z,14868
2017-04-17T07:44:38.990Z,10408
2017-04-17T07:45:38.693Z,8792
2017-04-17T07:46:38.684Z,10744
2017-04-17T07:47:38.371Z,8596
2017-04-17T07:48:38.322Z,10736
2017-04-17T07:49:38.314Z,6252
2017-04-17T07:50:38.672Z,4924
2017-04-17T07:51:38.283Z,3960
2017-04-17T07:52:38.577Z,3872
2017-04-17T07:53:38.606Z,3756
2017-04-17T07:54:38.222Z,3608
2017-04-17T07:55:38.212Z,3356
2017-04-17T07:56:38.614Z,3028
2017-04-17T07:57:38.204Z,2948
2017-04-17T07:58:38.133Z,2840
2017-04-17T07:59:38.133Z,2740
2017-04-17T08:00:38.497Z,2652
2017-04-17T08:01:37.469Z,2568
2017-04-17T08:02:37.740Z,2524
2017-04-17T08:03:38.040Z,2432
2017-04-17T08:04:38.322Z,2408
2017-04-17T08:05:38.385Z,2268
2017-04-17T08:06:37.995Z,2276
2017-04-17T08:07:37.672Z,2728
2017-04-17T08:08:38.258Z,3324
2017-04-17T08:09:37.902Z,4804
2017-04-17T08:10:37.963Z,5012
2017-04-17T08:11:38.202Z,5172
2017-04-17T08:12:37.849Z,4840
2017-04-17T08:13:37.587Z,6120
2017-04-17T08:14:38.131Z,30944
2017-04-17T08:15:37.172Z,86944
2017-04-17T08:16:38.102Z,9948
2017-04-17T08:17:37.452Z,7268
2017-04-17T08:18:38.134Z,5488
2017-04-17T08:19:38.053Z,4656
2017-04-17T08:20:37.739Z,3948
2017-04-17T08:21:37.532Z,3588
2017-04-17T08:22:37.673Z,3796
2017-04-17T08:23:37.404Z,4360
2017-04-17T08:24:37.616Z,32064
2017-04-17T08:25:37.654Z,82528
2017-04-17T08:26:37.578Z,76512
2017-04-17T08:27:37.574Z,88576
2017-04-17T08:28:37.613Z,71104
2017-04-17T08:29:37.930Z,80256
2017-04-17T08:30:37.522Z,89120
2017-04-17T08:31:37.514Z,86976
2017-04-17T08:32:37.505Z,94912
2017-04-17T08:33:37.481Z,95616
2017-04-17T08:34:37.802Z,88032
2017-04-17T08:35:37.761Z,86208
2017-04-17T08:36:37.434Z,99648
2017-04-17T08:37:37.425Z,92384
2017-04-17T08:38:37.747Z,69472
2017-04-17T08:39:37.396Z,74080
2017-04-17T08:40:37.383Z,82496
2017-04-17T08:41:37.139Z,69184
2017-04-17T08:42:37.366Z,56448
2017-04-17T08:43:37.665Z,57088
2017-04-17T08:44:37.378Z,62016
2017-04-17T08:45:37.389Z,62976
2017-04-17T08:46:37.028Z,70272
2017-04-17T08:47:37.027Z,75264
2017-04-17T08:48:37.334Z,75104
2017-04-17T08:49:37.015Z,72864
2017-04-17T08:50:37.340Z,78528
2017-04-17T08:51:37.022Z,83680
2017-04-17T08:52:37.615Z,84096
2017-04-17T08:53:36.993Z,78752
2017-04-17T08:54:37.632Z,80000
2017-04-17T08:55:37.315Z,69184
2017-04-17T08:56:37.593Z,81376
2017-04-17T08:57:37.606Z,72384
2017-04-17T08:58:37.319Z,65664
2017-04-17T08:59:37.593Z,71104
2017-04-17T09:00:37.264Z,77856
2017-04-17T09:01:37.566Z,71040
2017-04-17T09:02:37.551Z,71616
2017-04-17T09:03:37.551Z,70688
2017-04-17T09:04:37.610Z,79136
2017-04-17T09:05:37.536Z,85824
2017-04-17T09:06:36.927Z,94144
2017-04-17T09:07:37.537Z,120128
2017-04-17T09:08:37.251Z,122208
2017-04-17T09:09:36.931Z,106912
2017-04-17T09:10:37.212Z,106752
2017-04-17T09:11:37.506Z,93184
2017-04-17T09:12:37.538Z,103040
2017-04-17T09:13:37.192Z,11708
2017-04-17T09:14:37.186Z,11112
2017-04-17T09:15:37.190Z,8404
2017-04-17T09:16:37.507Z,8088
2017-04-17T09:17:37.182Z,8656
2017-04-17T09:18:37.162Z,10580
2017-04-17T09:19:37.460Z,61920
2017-04-17T09:20:37.442Z,84672
2017-04-17T09:21:36.827Z,85664
2017-04-17T09:22:36.835Z,38464
2017-04-17T09:23:37.437Z,8804
2017-04-17T09:24:37.159Z,72000
2017-04-17T09:25:36.511Z,27648
2017-04-17T09:26:36.806Z,16100
2017-04-17T09:27:37.113Z,77280
2017-04-17T09:28:37.391Z,77312
2017-04-17T09:29:37.192Z,77376
2017-04-17T09:30:37.111Z,80000
2017-04-17T09:31:36.744Z,74624
2017-04-17T09:32:37.057Z,74208
2017-04-17T09:33:37.465Z,72256
2017-04-17T09:34:36.727Z,72192
2017-04-17T09:35:36.729Z,74240
2017-04-17T09:36:37.146Z,70400
2017-04-17T09:37:36.715Z,72768
2017-04-17T09:38:37.329Z,73344
2017-04-17T09:39:37.327Z,69440
2017-04-17T09:40:36.986Z,67168
2017-04-17T09:41:37.295Z,71456
2017-04-17T09:42:36.978Z,69152
2017-04-17T09:43:37.285Z,63872
2017-04-17T09:44:36.951Z,9712
2017-04-17T09:45:36.952Z,9672
2017-04-17T09:46:37.353Z,8716
2017-04-17T09:47:37.263Z,8360
2017-04-17T09:48:37.311Z,9388
2017-04-17T09:49:36.615Z,8956
2017-04-17T09:50:36.293Z,8212
2017-04-17T09:51:36.925Z,8324
2017-04-17T09:52:36.893Z,10476
2017-04-17T09:53:37.193Z,15616
2017-04-17T09:54:36.856Z,7464
2017-04-17T09:55:37.174Z,7112
2017-04-17T09:56:36.567Z,6724
2017-04-17T09:57:36.602Z,6600
2017-04-17T09:58:37.156Z,6180
2017-04-17T09:59:36.810Z,5328
2017-04-17T10:00:36.810Z,4892
2017-04-17T10:01:36.493Z,4596
2017-04-17T10:02:37.079Z,4528
2017-04-17T10:03:36.463Z,4840
2017-04-17T10:04:37.101Z,5072
2017-04-17T10:05:36.760Z,5900
2017-04-17T10:06:36.432Z,8256
2017-04-17T10:07:36.726Z,8416
2017-04-17T10:08:36.386Z,10292
2017-04-17T10:09:36.690Z,10708
2017-04-17T10:10:36.418Z,14712
2017-04-17T10:11:36.975Z,58112
2017-04-17T10:12:36.336Z,53920
2017-04-17T10:13:36.964Z,49568
2017-04-17T10:14:36.756Z,50880
2017-04-17T10:15:36.315Z,52128
2017-04-17T10:16:36.592Z,49376
2017-04-17T10:17:36.586Z,47744
2017-04-17T10:18:36.852Z,42560
2017-04-17T10:19:36.854Z,23264
2017-04-17T10:20:36.306Z,11868
2017-04-17T10:21:36.220Z,11336
2017-04-17T10:22:36.503Z,11196
2017-04-17T10:23:36.815Z,11540
2017-04-17T10:24:36.783Z,11728
2017-04-17T10:25:36.781Z,11636
2017-04-17T10:26:36.740Z,11604
2017-04-17T10:27:36.750Z,11592
2017-04-17T10:28:36.431Z,11620
2017-04-17T10:29:36.405Z,12964
2017-04-17T10:30:36.403Z,13624
2017-04-17T10:31:36.697Z,11532
2017-04-17T10:32:36.379Z,9700
2017-04-17T10:33:36.667Z,8664
2017-04-17T10:34:36.095Z,7760
2017-04-17T10:35:36.438Z,7316
2017-04-17T10:36:36.330Z,7232
2017-04-17T10:37:36.313Z,6556
2017-04-17T10:38:36.369Z,6352
2017-04-17T10:39:36.575Z,11180
2017-04-17T10:40:36.315Z,11564
2017-04-17T10:41:36.251Z,11700
2017-04-17T10:42:36.252Z,11020
2017-04-17T10:43:36.214Z,10504
2017-04-17T10:44:35.915Z,10340
2017-04-17T10:45:36.492Z,9932
2017-04-17T10:46:36.275Z,9784
2017-04-17T10:47:36.483Z,9656
2017-04-17T10:48:36.552Z,9608
2017-04-17T10:49:36.565Z,9656
2017-04-17T10:50:36.191Z,9684
2017-04-17T10:51:36.417Z,9604
2017-04-17T10:52:36.404Z,9572
2017-04-17T10:53:36.126Z,9540
2017-04-17T10:54:36.448Z,9640
2017-04-17T10:55:36.157Z,9576
2017-04-17T10:56:36.337Z,10236
2017-04-17T10:57:36.384Z,10432
2017-04-17T10:58:36.345Z,5736
2017-04-17T10:59:36.299Z,6412
2017-04-17T11:00:36.522Z,11008
2017-04-17T11:01:36.384Z,11368
2017-04-17T11:02:36.328Z,6620
2017-04-17T11:03:36.362Z,6532
2017-04-17T11:04:36.259Z,8576
2017-04-17T11:05:36.255Z,9452
2017-04-17T11:06:36.283Z,11692
2017-04-17T11:07:36.204Z,11564
2017-04-17T11:08:36.215Z,11580
2017-04-17T11:09:36.190Z,11700
2017-04-17T11:10:35.843Z,12368
2017-04-17T11:11:36.223Z,11532
2017-04-17T11:12:35.531Z,8048
2017-04-17T11:13:36.246Z,13120
2017-04-17T11:14:35.794Z,10916
2017-04-17T11:15:35.829Z,12764
2017-04-17T11:16:35.174Z,8924
2017-04-17T11:17:36.174Z,8212
2017-04-17T11:18:35.753Z,7492
2017-04-17T11:19:35.737Z,6692
2017-04-17T11:20:35.743Z,6196
2017-04-17T11:21:35.413Z,6064
2017-04-17T11:22:35.993Z,10684
2017-04-17T11:23:35.694Z,11160
2017-04-17T11:24:35.673Z,10940
2017-04-17T11:25:35.863Z,11128
2017-04-17T11:26:35.962Z,11088
2017-04-17T11:27:35.957Z,7232
2017-04-17T11:28:35.614Z,8184
2017-04-17T11:29:35.288Z,8024
2017-04-17T11:30:35.942Z,12192
2017-04-17T11:31:35.923Z,11596
2017-04-17T11:32:35.581Z,6688
2017-04-17T11:33:35.551Z,6812
2017-04-17T11:34:35.873Z,5936
2017-04-17T11:35:35.850Z,5756
2017-04-17T11:36:35.818Z,5872
2017-04-17T11:37:35.813Z,6172
2017-04-17T11:38:35.618Z,8064
2017-04-17T11:39:35.753Z,12432
2017-04-17T11:40:35.751Z,7916
2017-04-17T11:41:35.737Z,8352
2017-04-17T11:42:35.674Z,7500
2017-04-17T11:43:35.724Z,6580
2017-04-17T11:44:35.695Z,5700
2017-04-17T11:45:35.374Z,4976
2017-04-17T11:46:35.379Z,4716
2017-04-17T11:47:35.663Z,4708
2017-04-17T11:48:35.642Z,4820
2017-04-17T11:49:35.014Z,4880
2017-04-17T11:50:35.686Z,5016
2017-04-17T11:51:35.357Z,5236
2017-04-17T11:52:35.574Z,5160
2017-04-17T11:53:35.383Z,5208
2017-04-17T11:54:35.274Z,5880
2017-04-17T11:55:35.247Z,6316
2017-04-17T11:56:35.212Z,6516
2017-04-17T11:57:35.500Z,6616
2017-04-17T11:58:35.187Z,6220
2017-04-17T11:59:35.222Z,5784
2017-04-17T12:00:35.470Z,5296
2017-04-17T12:01:34.834Z,5152
2017-04-17T12:02:35.123Z,5764
2017-04-17T12:03:35.404Z,5980
2017-04-17T12:04:35.103Z,6232
2017-04-17T12:05:35.127Z,6220
2017-04-17T12:06:35.053Z,6012
2017-04-17T12:07:35.359Z,5916
2017-04-17T12:08:35.345Z,5700
2017-04-17T12:09:35.003Z,5712
2017-04-17T12:10:34.994Z,11976
2017-04-17T12:11:35.293Z,12276
2017-04-17T12:12:35.251Z,12144
2017-04-17T12:13:34.642Z,11880
2017-04-17T12:14:35.223Z,11684
2017-04-17T12:15:34.913Z,11372
2017-04-17T12:16:34.884Z,11260
2017-04-17T12:17:34.593Z,11280
2017-04-17T12:18:35.173Z,6540
2017-04-17T12:19:34.542Z,10692
2017-04-17T12:20:35.142Z,10668
2017-04-17T12:21:34.840Z,10576
2017-04-17T12:22:34.486Z,10456
2017-04-17T12:23:35.302Z,10324
2017-04-17T12:24:35.113Z,10212
2017-04-17T12:25:34.541Z,10100
2017-04-17T12:26:34.733Z,9996
2017-04-17T12:27:35.062Z,9928
2017-04-17T12:28:35.014Z,9924
2017-04-17T12:29:35.002Z,9924
2017-04-17T12:30:34.375Z,9912
2017-04-17T12:31:34.792Z,9876
2017-04-17T12:32:34.725Z,9844
2017-04-17T12:33:34.425Z,9852
2017-04-17T12:34:34.930Z,9876
2017-04-17T12:35:34.072Z,9928
2017-04-17T12:36:34.583Z,5740
2017-04-17T12:37:34.919Z,9316
2017-04-17T12:38:34.555Z,9736
2017-04-17T12:39:34.652Z,9668
2017-04-17T12:40:34.563Z,9744
2017-04-17T12:41:34.824Z,6360
2017-04-17T12:42:34.903Z,9732
2017-04-17T12:43:34.902Z,9748
2017-04-17T12:44:34.525Z,9988
2017-04-17T12:45:34.834Z,10108
2017-04-17T12:46:34.855Z,10420
2017-04-17T12:47:34.783Z,7576
2017-04-17T12:48:34.102Z,11552
2017-04-17T12:49:34.698Z,10104
2017-04-17T12:50:34.793Z,7108
2017-04-17T12:51:34.424Z,6796
2017-04-17T12:52:34.361Z,6352
2017-04-17T12:53:34.381Z,6144
2017-04-17T12:54:34.334Z,6036
2017-04-17T12:55:34.322Z,5576
2017-04-17T12:56:34.301Z,5104
2017-04-17T12:57:33.885Z,5096
2017-04-17T12:58:33.963Z,5348
2017-04-17T12:59:34.005Z,4844
2017-04-17T13:00:34.592Z,4588
2017-04-17T13:01:34.522Z,4340
2017-04-17T13:02:34.245Z,4100
2017-04-17T13:03:34.233Z,3644
2017-04-17T13:04:34.165Z,3156
2017-04-17T13:05:34.221Z,2720
2017-04-17T13:06:33.844Z,2408
2017-04-17T13:07:34.443Z,2188
2017-04-17T13:08:34.417Z,1900
2017-04-17T13:09:34.105Z,1608
2017-04-17T13:10:33.783Z,1340
2017-04-17T13:11:34.372Z,1080
2017-04-17T13:12:34.453Z,908
2017-04-17T13:13:34.024Z,708
2017-04-17T13:14:34.016Z,704
2017-04-17T13:15:34.017Z,652
2017-04-17T13:16:33.998Z,700
2017-04-17T13:17:33.954Z,768
2017-04-17T13:18:33.691Z,880
2017-04-17T13:19:34.246Z,992
2017-04-17T13:20:33.993Z,1084
2017-04-17T13:21:33.914Z,1220
2017-04-17T13:22:33.883Z,1412
2017-04-17T13:23:33.552Z,1564
2017-04-17T13:24:34.244Z,1748
2017-04-17T13:25:33.817Z,1908
2017-04-17T13:26:33.819Z,2088
2017-04-17T13:27:33.780Z,2356
2017-04-17T13:28:34.074Z,2648
2017-04-17T13:29:34.043Z,3036
2017-04-17T13:30:34.049Z,3504
2017-04-17T13:31:33.707Z,4132
2017-04-17T13:32:33.995Z,4924
2017-04-17T13:33:33.975Z,5644
2017-04-17T13:34:33.966Z,6216
2017-04-17T13:35:33.941Z,6756
2017-04-17T13:36:33.976Z,8516
2017-04-17T13:37:33.923Z,9552
2017-04-17T13:38:33.269Z,10140
2017-04-17T13:39:34.029Z,11224
2017-04-17T13:40:33.858Z,10860
2017-04-17T13:41:33.816Z,11296
2017-04-17T13:42:33.887Z,11236